createdAt,value
2022-09-03T00:01:05.922Z,14.81
2022-09-03T00:03:39.000Z,14.79
2022-09-03T00:06:21.714Z,14.75
2022-09-03T00:09:11.076Z,14.78
2022-09-03T00:11:38.307Z,14.80
2022-09-03T00:14:07.623Z,14.78
2022-09-03T00:16:40.899Z,14.76
2022-09-03T00:19:07.475Z,14.74
2022-09-03T00:21:33.742Z,14.73
2022-09-03T00:24:01.386Z,14.70
2022-09-03T00:26:29.904Z,14.71
2022-09-03T00:29:00.001Z,14.72
2022-09-03T00:31:32.855Z,14.76
2022-09-03T00:34:02.163Z,14.77
2022-09-03T00:36:35.688Z,14.76
2022-09-03T00:39:01.992Z,14.76
2022-09-03T00:41:34.507Z,14.74
2022-09-03T00:44:11.043Z,14.75
2022-09-03T00:47:00.296Z,14.76
2022-09-03T00:49:37.159Z,14.72
2022-09-03T00:52:28.056Z,14.72
2022-09-03T00:55:06.999Z,14.68
2022-09-03T00:57:44.242Z,14.71
2022-09-03T01:00:12.971Z,14.72
2022-09-03T01:02:57.676Z,14.72
2022-09-03T01:05:34.314Z,14.72
2022-09-03T01:08:04.931Z,14.72
2022-09-03T01:10:54.899Z,14.69
2022-09-03T01:13:33.058Z,14.67
2022-09-03T01:16:17.989Z,14.60
2022-09-03T01:18:50.414Z,14.60
2022-09-03T01:21:38.519Z,14.62
2022-09-03T01:24:23.627Z,14.63
2022-09-03T01:27:06.503Z,14.62
2022-09-03T01:29:49.757Z,14.62
2022-09-03T01:32:16.791Z,14.62
2022-09-03T01:34:48.381Z,14.61
2022-09-03T01:37:20.405Z,14.59
2022-09-03T01:39:49.718Z,14.59
2022-09-03T01:42:22.018Z,14.59
2022-09-03T01:45:07.650Z,14.61
2022-09-03T01:47:54.911Z,14.59
2022-09-03T01:50:40.266Z,14.60
2022-09-03T01:53:18.887Z,14.58
2022-09-03T01:55:48.001Z,14.55
2022-09-03T01:58:20.088Z,14.53
2022-09-03T02:00:49.927Z,14.50
2022-09-03T02:03:16.648Z,14.46
2022-09-03T02:05:44.075Z,14.42
2022-09-03T02:08:11.758Z,14.41
2022-09-03T02:10:41.087Z,14.39
2022-09-03T02:13:12.095Z,14.33
2022-09-03T02:15:40.517Z,14.29
2022-09-03T02:18:11.037Z,14.23
2022-09-03T02:20:37.569Z,14.20
2022-09-03T02:23:04.159Z,14.20
2022-09-03T02:25:36.898Z,14.20
2022-09-03T02:28:04.469Z,14.16
2022-09-03T02:30:33.914Z,14.12
2022-09-03T02:33:00.796Z,14.08
2022-09-03T02:35:27.563Z,14.06
2022-09-03T02:37:54.214Z,14.06
2022-09-03T02:40:20.546Z,14.05
2022-09-03T02:42:47.150Z,14.06
2022-09-03T02:45:21.298Z,14.09
2022-09-03T02:47:50.259Z,14.10
2022-09-03T02:50:16.597Z,14.10
2022-09-03T02:52:42.958Z,14.07
2022-09-03T02:55:09.449Z,14.00
2022-09-03T02:57:35.754Z,13.97
2022-09-03T03:00:02.253Z,13.92
2022-09-03T03:02:28.646Z,13.88
2022-09-03T03:04:55.573Z,13.84
2022-09-03T03:07:21.889Z,13.82
2022-09-03T03:09:48.237Z,13.76
2022-09-03T03:12:17.241Z,13.74
2022-09-03T03:14:43.714Z,13.66
2022-09-03T03:17:10.068Z,13.59
2022-09-03T03:19:36.378Z,13.54
2022-09-03T03:22:02.679Z,13.52
2022-09-03T03:24:29.033Z,13.46
2022-09-03T03:26:58.031Z,13.38
2022-09-03T03:29:25.205Z,13.30
2022-09-03T03:31:51.926Z,13.22
2022-09-03T03:34:18.257Z,13.15
2022-09-03T03:36:44.587Z,13.10
2022-09-03T03:39:11.274Z,13.05
2022-09-03T03:41:38.224Z,13.01
2022-09-03T03:44:07.926Z,12.96
2022-09-03T03:46:38.763Z,12.85
2022-09-03T03:49:08.503Z,12.74
2022-09-03T03:51:35.983Z,12.66
2022-09-03T03:54:05.316Z,12.58
2022-09-03T03:56:32.493Z,12.50
2022-09-03T03:58:59.567Z,12.39
2022-09-03T04:01:26.915Z,12.32
2022-09-03T04:03:57.157Z,12.25
2022-09-03T04:06:23.738Z,12.20
2022-09-03T04:08:50.395Z,12.14
2022-09-03T04:11:21.083Z,12.08
2022-09-03T04:13:48.035Z,12.03
2022-09-03T04:16:15.899Z,11.96
2022-09-03T04:18:42.375Z,11.89
2022-09-03T04:21:08.675Z,11.87
2022-09-03T04:23:36.720Z,11.82
2022-09-03T04:26:03.344Z,11.79
2022-09-03T04:28:32.018Z,11.73
2022-09-03T04:31:05.116Z,11.65
2022-09-03T04:33:32.355Z,11.61
2022-09-03T04:36:03.607Z,11.55
2022-09-03T04:38:32.460Z,11.52
2022-09-03T04:40:59.880Z,11.49
2022-09-03T04:43:26.628Z,11.48
2022-09-03T04:45:56.204Z,11.41
2022-09-03T04:48:22.563Z,11.37
2022-09-03T04:50:48.874Z,11.33
2022-09-03T04:53:15.291Z,11.31
2022-09-03T04:55:41.592Z,11.29
2022-09-03T04:58:08.507Z,11.24
2022-09-03T05:00:36.112Z,11.24
2022-09-03T05:03:04.823Z,11.24
2022-09-03T05:05:31.770Z,11.24
2022-09-03T05:07:58.503Z,11.23
2022-09-03T05:10:24.839Z,11.18
2022-09-03T05:13:01.547Z,11.15
2022-09-03T05:15:28.693Z,11.13
2022-09-03T05:18:04.259Z,11.13
2022-09-03T05:20:31.164Z,11.14
2022-09-03T05:22:57.476Z,11.14
2022-09-03T05:25:24.551Z,11.17
2022-09-03T05:27:51.668Z,11.20
2022-09-03T05:30:17.979Z,11.23
2022-09-03T05:32:44.329Z,11.31
2022-09-03T05:35:11.006Z,11.42
2022-09-03T05:37:37.729Z,11.54
2022-09-03T05:40:04.437Z,11.65
2022-09-03T05:42:35.447Z,11.76
2022-09-03T05:45:01.789Z,11.86
2022-09-03T05:47:28.247Z,11.96
2022-09-03T05:49:54.618Z,12.08
2022-09-03T05:52:23.408Z,12.18
2022-09-03T05:54:49.736Z,12.30
2022-09-03T05:57:16.027Z,12.40
2022-09-03T05:59:42.373Z,12.51
2022-09-03T06:02:08.829Z,12.63
2022-09-03T06:04:38.507Z,12.73
2022-09-03T06:07:04.881Z,12.89
2022-09-03T06:09:31.201Z,12.99
2022-09-03T06:11:57.546Z,13.16
2022-09-03T06:14:25.877Z,13.35
2022-09-03T06:16:52.939Z,13.62
2022-09-03T06:19:19.626Z,13.99
2022-09-03T06:21:46.567Z,14.31
2022-09-03T06:24:16.493Z,14.52
2022-09-03T06:26:43.289Z,14.77
2022-09-03T06:29:10.594Z,14.86
2022-09-03T06:31:37.092Z,14.99
2022-09-03T06:34:04.407Z,15.03
2022-09-03T06:36:30.948Z,14.98
2022-09-03T06:38:57.789Z,15.00
2022-09-03T06:41:25.439Z,14.93
2022-09-03T06:43:53.343Z,14.93
2022-09-03T06:46:23.938Z,14.99
2022-09-03T06:48:53.411Z,15.07
2022-09-03T06:51:21.013Z,15.16
2022-09-03T06:53:48.395Z,15.21
2022-09-03T06:56:16.894Z,15.30
2022-09-03T06:58:44.391Z,15.44
2022-09-03T07:01:10.746Z,15.56
2022-09-03T07:03:37.861Z,15.73
2022-09-03T07:06:05.474Z,15.94
2022-09-03T07:08:33.329Z,16.06
2022-09-03T07:11:00.398Z,16.29
2022-09-03T07:13:26.867Z,16.47
2022-09-03T07:16:00.568Z,16.52
2022-09-03T07:18:26.949Z,16.69
2022-09-03T07:20:57.376Z,16.59
2022-09-03T07:23:23.701Z,16.52
2022-09-03T07:26:00.273Z,16.58
2022-09-03T07:28:27.667Z,16.73
2022-09-03T07:30:55.146Z,16.88
2022-09-03T07:33:21.543Z,16.94
2022-09-03T07:35:47.906Z,17.08
2022-09-03T07:38:19.722Z,17.16
2022-09-03T07:40:47.154Z,17.24
2022-09-03T07:43:13.649Z,17.33
2022-09-03T07:45:40.058Z,17.47
2022-09-03T07:48:06.400Z,17.51
2022-09-03T07:50:39.096Z,17.56
2022-09-03T07:53:05.444Z,17.64
2022-09-03T07:55:31.915Z,17.85
2022-09-03T07:57:59.455Z,17.80
2022-09-03T08:00:26.268Z,17.95
2022-09-03T08:02:56.548Z,18.05
2022-09-03T08:05:22.881Z,18.17
2022-09-03T08:07:49.563Z,18.37
2022-09-03T08:10:16.531Z,18.55
2022-09-03T08:12:42.862Z,18.49
2022-09-03T08:15:09.310Z,18.51
2022-09-03T08:17:35.646Z,18.54
2022-09-03T08:20:03.621Z,18.49
2022-09-03T08:22:29.983Z,18.34
2022-09-03T08:24:56.296Z,18.11
2022-09-03T08:27:25.367Z,17.89
2022-09-03T08:29:51.722Z,17.67
2022-09-03T08:32:18.053Z,17.49
2022-09-03T08:34:44.378Z,17.35
2022-09-03T08:37:12.552Z,17.39
2022-09-03T08:39:39.343Z,17.58
2022-09-03T08:42:24.319Z,17.94
2022-09-03T08:45:02.614Z,18.17
2022-09-03T08:47:39.399Z,18.40
2022-09-03T08:50:26.330Z,18.62
2022-09-03T08:52:52.635Z,18.83
2022-09-03T08:55:22.550Z,18.88
2022-09-03T08:57:51.074Z,19.05
2022-09-03T09:00:17.784Z,19.14
2022-09-03T09:02:58.294Z,19.28
2022-09-03T09:05:32.304Z,19.32
2022-09-03T09:08:08.065Z,19.30
2022-09-03T09:10:34.436Z,19.34
2022-09-03T09:13:39.444Z,19.42
2022-09-03T09:16:08.890Z,19.46
2022-09-03T09:18:46.703Z,19.50
2022-09-03T09:21:21.928Z,19.42
2022-09-03T09:23:50.200Z,19.32
2022-09-03T09:26:18.088Z,19.42
2022-09-03T09:28:46.703Z,19.52
2022-09-03T09:31:16.090Z,19.63
2022-09-03T09:33:42.591Z,19.59
2022-09-03T09:36:11.697Z,19.69
2022-09-03T09:38:38.515Z,19.66
2022-09-03T09:41:29.852Z,19.65
2022-09-03T09:44:02.087Z,19.78
2022-09-03T09:46:39.526Z,19.73
2022-09-03T09:49:25.143Z,19.76
2022-09-03T09:52:00.377Z,19.79
2022-09-03T09:54:28.173Z,19.99
2022-09-03T09:57:05.749Z,20.09
2022-09-03T09:59:33.857Z,20.09
2022-09-03T10:02:13.813Z,20.16
2022-09-03T10:04:48.602Z,20.05
2022-09-03T10:07:32.836Z,19.87
2022-09-03T10:09:59.118Z,20.16
2022-09-03T10:12:31.662Z,20.47
2022-09-03T10:15:07.510Z,20.34
2022-09-03T10:17:44.884Z,20.46
2022-09-03T10:20:31.326Z,20.37
2022-09-03T10:22:57.737Z,20.24
2022-09-03T10:25:26.873Z,20.17
2022-09-03T10:27:56.698Z,20.32
2022-09-03T10:30:26.149Z,20.28
2022-09-03T10:33:01.386Z,20.39
2022-09-03T10:35:30.373Z,20.35
2022-09-03T10:38:05.573Z,20.56
2022-09-03T10:40:38.007Z,20.88
2022-09-03T10:43:23.901Z,21.39
2022-09-03T10:46:19.503Z,21.78
2022-09-03T10:49:11.813Z,22.07
2022-09-03T10:51:45.131Z,21.74
2022-09-03T10:54:37.871Z,21.89
2022-09-03T10:57:19.244Z,21.89
2022-09-03T11:00:01.915Z,22.19
2022-09-03T11:02:34.127Z,22.17
2022-09-03T11:05:05.068Z,23.33
2022-09-03T11:07:43.127Z,23.73
2022-09-03T11:10:18.742Z,24.29
2022-09-03T11:12:47.774Z,24.07
2022-09-03T11:15:27.877Z,23.64
2022-09-03T11:18:08.452Z,23.40
2022-09-03T11:20:35.367Z,23.37
2022-09-03T11:23:04.997Z,23.87
2022-09-03T11:25:34.025Z,23.60
2022-09-03T11:28:03.281Z,22.89
2022-09-03T11:30:37.805Z,22.60
2022-09-03T11:33:09.408Z,22.39
2022-09-03T11:35:35.778Z,22.00
2022-09-03T11:38:03.470Z,21.93
2022-09-03T11:40:33.108Z,22.15
2022-09-03T11:43:14.602Z,22.32
2022-09-03T11:45:41.357Z,22.19
2022-09-03T11:48:17.552Z,22.07
2022-09-03T11:50:52.487Z,22.42
2022-09-03T11:53:19.042Z,23.37
2022-09-03T11:55:56.950Z,24.70
2022-09-03T11:58:25.611Z,25.04
2022-09-03T12:00:55.092Z,24.16
2022-09-03T12:03:44.789Z,23.64
2022-09-03T12:06:23.016Z,24.72
2022-09-03T12:08:49.331Z,25.81
2022-09-03T12:11:35.565Z,26.02
2022-09-03T12:14:01.849Z,26.29
2022-09-03T12:16:54.481Z,26.31
2022-09-03T12:19:39.848Z,27.23
2022-09-03T12:22:06.427Z,26.94
2022-09-03T12:24:38.433Z,26.50
2022-09-03T12:27:05.311Z,25.71
2022-09-03T12:29:31.936Z,25.00
2022-09-03T12:32:06.889Z,24.53
2022-09-03T12:34:33.262Z,25.39
2022-09-03T12:36:59.619Z,25.99
2022-09-03T12:42:19.485Z,26.10
2022-09-03T12:44:45.805Z,26.30
2022-09-03T12:50:05.286Z,24.90
2022-09-03T12:52:35.294Z,24.70
2022-09-03T12:55:01.660Z,25.19
2022-09-03T12:57:33.909Z,25.52
2022-09-03T13:00:03.997Z,26.39
2022-09-03T13:02:36.819Z,26.43
2022-09-03T13:05:03.876Z,26.59
2022-09-03T13:07:33.562Z,25.42
2022-09-03T13:10:08.676Z,25.73
2022-09-03T13:12:53.775Z,25.72
2022-09-03T13:15:22.636Z,26.57
2022-09-03T13:17:57.877Z,26.85
2022-09-03T13:20:48.004Z,26.47
2022-09-03T13:23:20.427Z,26.53
2022-09-03T13:26:05.950Z,26.10
2022-09-03T13:28:41.535Z,25.07
2022-09-03T13:31:11.031Z,23.76
2022-09-03T13:33:46.092Z,23.54
2022-09-03T13:36:25.929Z,23.68
2022-09-03T13:38:59.119Z,24.51
2022-09-03T13:41:36.554Z,24.19
2022-09-03T13:44:07.773Z,23.89
2022-09-03T13:46:44.156Z,23.09
2022-09-03T13:49:48.281Z,22.57
2022-09-03T13:52:33.194Z,22.58
2022-09-03T13:55:03.867Z,22.66
2022-09-03T13:57:45.757Z,23.62
2022-09-03T14:00:13.815Z,24.07
2022-09-03T14:02:50.813Z,23.95
2022-09-03T14:05:23.707Z,24.15
2022-09-03T14:07:58.904Z,24.19
2022-09-03T14:10:25.191Z,24.77
2022-09-03T14:13:10.242Z,24.90
2022-09-03T14:15:45.716Z,23.86
2022-09-03T14:18:30.872Z,24.10
2022-09-03T14:20:59.640Z,24.68
2022-09-03T14:23:35.214Z,24.76
2022-09-03T14:26:03.571Z,24.68
2022-09-03T14:28:45.262Z,24.31
2022-09-03T14:31:29.820Z,24.00
2022-09-03T14:33:56.172Z,24.50
2022-09-03T14:36:39.450Z,24.62
2022-09-03T14:39:18.136Z,25.03
2022-09-03T14:41:44.660Z,25.05
2022-09-03T14:44:26.327Z,25.34
2022-09-03T14:47:01.378Z,25.22
2022-09-03T14:49:46.604Z,25.78
2022-09-03T14:52:29.952Z,26.41
2022-09-03T14:55:04.414Z,25.49
2022-09-03T14:57:36.994Z,24.99
2022-09-03T15:00:20.029Z,25.02
2022-09-03T15:02:51.342Z,24.77
2022-09-03T15:05:18.485Z,23.90
2022-09-03T15:07:50.803Z,23.26
2022-09-03T15:10:26.449Z,22.49
2022-09-03T15:12:55.069Z,22.32
2022-09-03T15:15:24.683Z,22.35
2022-09-03T15:18:09.553Z,22.28
2022-09-03T15:20:46.014Z,21.89
2022-09-03T15:23:31.133Z,21.63
2022-09-03T15:26:16.367Z,21.29
2022-09-03T15:28:48.953Z,21.12
2022-09-03T15:31:18.427Z,21.16
2022-09-03T15:36:18.732Z,21.35
2022-09-03T15:39:03.658Z,21.33
2022-09-03T15:41:48.865Z,21.09
2022-09-03T15:44:19.528Z,21.05
2022-09-03T15:46:49.219Z,21.09
2022-09-03T15:49:24.608Z,20.92
2022-09-03T15:51:50.903Z,20.51
2022-09-03T15:54:19.913Z,20.22
2022-09-03T15:57:03.234Z,20.08
2022-09-03T15:59:37.209Z,19.94
2022-09-03T16:02:10.906Z,19.86
2022-09-03T16:04:43.770Z,19.87
2022-09-03T16:07:18.224Z,19.81
2022-09-03T16:10:24.365Z,19.90
2022-09-03T16:13:26.693Z,19.87
2022-09-03T16:16:11.480Z,19.81
2022-09-03T16:18:53.916Z,19.74
2022-09-03T16:21:26.422Z,19.69
2022-09-03T16:24:01.499Z,19.59
2022-09-03T16:26:33.595Z,19.55
2022-09-03T16:29:11.619Z,19.66
2022-09-03T16:31:46.876Z,19.69
2022-09-03T16:34:18.825Z,19.80
2022-09-03T16:36:57.621Z,19.86
2022-09-03T16:39:23.941Z,19.89
2022-09-03T16:41:58.545Z,19.89
2022-09-03T16:44:25.100Z,19.83
2022-09-03T16:47:03.994Z,19.84
2022-09-03T16:49:49.884Z,19.84
2022-09-03T16:52:38.491Z,19.72
2022-09-03T16:55:14.684Z,19.58
2022-09-03T16:57:50.240Z,19.57
2022-09-03T17:00:20.250Z,19.53
2022-09-03T17:02:52.831Z,19.52
2022-09-03T17:05:37.914Z,19.40
2022-09-03T17:08:13.409Z,19.36
2022-09-03T17:11:01.298Z,19.24
2022-09-03T17:13:36.508Z,19.11
2022-09-03T17:16:15.761Z,19.02
2022-09-03T17:19:07.056Z,18.94
2022-09-03T17:21:46.774Z,18.88
2022-09-03T17:24:26.499Z,18.77
2022-09-03T17:27:21.508Z,18.66
2022-09-03T17:30:06.755Z,18.55
2022-09-03T17:32:41.957Z,18.46
2022-09-03T17:35:13.058Z,18.39
2022-09-03T17:37:50.520Z,18.33
2022-09-03T17:40:22.443Z,18.22
2022-09-03T17:42:54.457Z,18.16
2022-09-03T17:45:20.868Z,18.11
2022-09-03T17:48:05.948Z,17.96
2022-09-03T17:50:43.591Z,17.75
2022-09-03T17:53:15.543Z,17.69
2022-09-03T17:55:46.371Z,17.64
2022-09-03T17:58:16.285Z,17.56
2022-09-03T18:00:57.167Z,17.49
2022-09-03T18:03:39.589Z,17.42
2022-09-03T18:06:11.176Z,17.32
2022-09-03T18:09:03.394Z,17.24
2022-09-03T18:11:36.656Z,17.16
2022-09-03T18:14:11.783Z,17.13
2022-09-03T18:16:47.431Z,17.10
2022-09-03T18:19:35.582Z,17.01
2022-09-03T18:22:22.312Z,16.97
2022-09-03T18:25:16.333Z,16.93
2022-09-03T18:28:15.255Z,16.91
2022-09-03T18:31:00.258Z,16.85
2022-09-03T18:33:45.346Z,16.78
2022-09-03T18:36:31.382Z,16.72
2022-09-03T18:39:54.989Z,16.65
2022-09-03T18:42:54.518Z,16.54
2022-09-03T18:49:07.832Z,16.43
2022-09-03T18:52:11.689Z,16.34
2022-09-03T18:55:11.781Z,16.32
2022-09-03T18:58:09.672Z,16.37
2022-09-03T19:00:58.764Z,16.38
2022-09-03T19:04:02.305Z,16.40
2022-09-03T19:07:13.257Z,16.39
2022-09-03T19:10:03.886Z,16.33
2022-09-03T19:13:07.817Z,16.26
2022-09-03T19:15:58.540Z,16.19
2022-09-03T19:18:46.700Z,16.16
2022-09-03T19:21:46.988Z,16.16
2022-09-03T19:24:31.967Z,16.14
2022-09-03T19:27:52.980Z,16.13
2022-09-03T19:30:37.615Z,16.05
2022-09-03T19:33:28.638Z,16.00
2022-09-03T19:36:13.506Z,15.93
2022-09-03T19:39:01.449Z,15.91
2022-09-03T19:41:50.426Z,15.92
2022-09-03T19:44:54.164Z,15.83
2022-09-03T19:47:54.375Z,15.85
2022-09-03T19:50:40.719Z,15.82
2022-09-03T19:53:29.481Z,15.76
2022-09-03T19:56:15.861Z,15.71
2022-09-03T19:59:30.144Z,15.68
2022-09-03T20:02:15.254Z,15.59
2022-09-03T20:05:03.178Z,15.50
2022-09-03T20:07:48.222Z,15.42
2022-09-03T20:10:22.624Z,15.40
2022-09-03T20:13:10.415Z,15.39
2022-09-03T20:15:49.539Z,15.33
2022-09-03T20:18:45.303Z,15.37
2022-09-03T20:21:11.598Z,15.32
2022-09-03T20:23:47.180Z,15.28
2022-09-03T20:26:32.017Z,15.25
2022-09-03T20:29:30.941Z,15.19
2022-09-03T20:32:00.219Z,15.13
2022-09-03T20:34:44.512Z,15.14
2022-09-03T20:37:10.812Z,15.11
2022-09-03T20:39:37.250Z,15.10
2022-09-03T20:42:42.105Z,15.07
2022-09-03T20:45:17.876Z,15.03
2022-09-03T20:47:49.531Z,14.99
2022-09-03T20:50:25.005Z,15.01
2022-09-03T20:53:06.465Z,15.00
2022-09-03T20:55:41.851Z,14.96
2022-09-03T20:58:18.174Z,14.89
2022-09-03T21:01:03.362Z,14.87
2022-09-03T21:03:29.685Z,14.93
2022-09-03T21:05:56.074Z,14.86
2022-09-03T21:08:24.458Z,14.80
2022-09-03T21:11:09.592Z,14.78
2022-09-03T21:13:41.963Z,14.68
2022-09-03T21:16:08.432Z,14.71
2022-09-03T21:18:53.611Z,14.71
2022-09-03T21:21:26.087Z,14.65
2022-09-03T21:24:05.031Z,14.65
2022-09-03T21:26:34.673Z,14.59
2022-09-03T21:29:01.011Z,14.62
2022-09-03T21:31:31.735Z,14.54
2022-09-03T21:34:11.123Z,14.54
2022-09-03T21:36:38.312Z,14.56
2022-09-03T21:39:18.825Z,14.51
2022-09-03T21:41:55.267Z,14.43
2022-09-03T21:44:21.547Z,14.35
2022-09-03T21:46:56.886Z,14.32
2022-09-03T21:49:26.542Z,14.27
2022-09-03T21:52:05.091Z,14.24
2022-09-03T21:54:33.727Z,14.23
2022-09-03T21:57:09.552Z,14.18
2022-09-03T21:59:51.792Z,14.12
2022-09-03T22:02:24.156Z,14.10
2022-09-03T22:04:51.133Z,14.08
2022-09-03T22:07:23.211Z,14.03
2022-09-03T22:09:54.518Z,14.06
2022-09-03T22:12:27.906Z,14.05
2022-09-03T22:14:55.669Z,14.02
2022-09-03T22:17:43.860Z,13.98
2022-09-03T22:20:15.390Z,14.00
2022-09-03T22:22:45.134Z,13.98
2022-09-03T22:25:14.846Z,13.93
2022-09-03T22:27:46.237Z,13.92
2022-09-03T22:30:14.512Z,13.88
2022-09-03T22:32:49.633Z,13.83
2022-09-03T22:35:15.984Z,13.77
2022-09-03T22:37:48.748Z,13.77
2022-09-03T22:40:24.220Z,13.76
2022-09-03T22:43:09.580Z,13.78
2022-09-03T22:45:46.366Z,13.78
2022-09-03T22:48:30.672Z,13.77
2022-09-03T22:51:01.598Z,13.79
2022-09-03T22:53:34.165Z,13.76
2022-09-03T22:56:05.830Z,13.75
2022-09-03T22:58:38.170Z,13.75
2022-09-03T23:01:08.049Z,13.76
2022-09-03T23:03:55.442Z,13.78
2022-09-03T23:06:26.752Z,13.75
2022-09-03T23:09:06.963Z,13.74
2022-09-03T23:11:34.465Z,13.70
2022-09-03T23:14:04.674Z,13.67
2022-09-03T23:16:38.752Z,13.63
2022-09-03T23:21:58.614Z,13.55
2022-09-03T23:24:30.986Z,13.55
2022-09-03T23:26:59.058Z,13.63
2022-09-03T23:29:40.773Z,13.69
2022-09-03T23:32:09.216Z,13.70
2022-09-03T23:34:36.034Z,13.73
2022-09-03T23:37:36.472Z,13.69
2022-09-03T23:40:25.730Z,13.66
2022-09-03T23:43:10.534Z,13.62
2022-09-03T23:45:46.203Z,13.59
2022-09-03T23:48:21.902Z,13.56
2022-09-03T23:50:58.533Z,13.51
2022-09-03T23:53:43.174Z,13.51
2022-09-03T23:56:15.628Z,13.48
2022-09-03T23:58:41.995Z,13.46
